Louise B — D5JM3 — position and weather

sailwx.info

Track history (hours):
 
Tides and Currents Weather Stations Pressure Air Temp Water Temp Dewpoint Dewpoint Depression Visibility Wind Speed Wind Dir Waves Ship Positions

Louise B

Last reported at 2018-Feb-15 15:36 UTC. Time now 2018-Feb-22 19:11 UTC.
Position N 35°60' W 005°13'.

Length 187 m; draft 10.3 m.

Type: Cargo ship. MMSI: 636017138.

Date/timePositionNaut miles runAvg speedWind from/ knotsBaromVisibWave heightAir tempDewpointWater temp
2018-Feb-15 15:36N 35°60' W 005°13'114.5
2018-Feb-15 15:31N 35°60' W 005°15'714.1
2018-Feb-15 15:00N 35°58' W 005°23'  
2018-Feb-13 05:41N 28°43' W 014°42'211.2
2018-Feb-13 05:30N 28°41' W 014°44'611.2
2018-Feb-13 05:00N 28°37' W 014°48'611.0
2018-Feb-13 04:30N 28°33' W 014°53'511.0
2018-Feb-13 04:00N 28°30' W 014°57'510.9
2018-Feb-13 03:30N 28°26' W 015°02'510.9
2018-Feb-13 03:00N 28°22' W 015°06'611.1
2018-Feb-13 02:28N 28°18' W 015°11'511.0
2018-Feb-13 02:00N 28°14' W 015°15'510.9
2018-Feb-13 01:30N 28°10' W 015°19'5 9.2
2018-Feb-13 01:00N 28°07' W 015°23'1 2.1
2018-Feb-13 00:30N 28°06' W 015°24'0 0.1
2018-Feb-13 00:00N 28°06' W 015°24'0 0.0
2018-Feb-12 23:30N 28°06' W 015°24'0 0.0
2018-Feb-12 23:00N 28°06' W 015°24'0 0.0
2018-Feb-12 22:30N 28°06' W 015°24'0 0.0
2018-Feb-12 22:00N 28°06' W 015°24'0 0.0
2018-Feb-12 21:30N 28°06' W 015°24'0 0.0
2018-Feb-12 21:00N 28°06' W 015°24'0 0.0
2018-Feb-12 20:30N 28°06' W 015°24'0 0.0
2018-Feb-12 19:57N 28°06' W 015°24'0 0.0
2018-Feb-12 19:30N 28°06' W 015°24'0 0.0
2018-Feb-12 19:00N 28°06' W 015°24'0 0.1
2018-Feb-12 18:30N 28°06' W 015°24'0 0.5
2018-Feb-12 18:00N 28°06' W 015°24'1 2.2
2018-Feb-12 17:30N 28°06' W 015°23'1 1.5
2018-Feb-12 17:00N 28°06' W 015°22'1 2.1
2018-Feb-12 16:30N 28°05' W 015°21'3 6.8
2018-Feb-12 16:00N 28°02' W 015°19'510.5
2018-Feb-12 15:30N 27°57' W 015°18'511.0
2018-Feb-12 15:00N 27°51' W 015°18'611.1
2018-Feb-12 14:30N 27°46' W 015°18'611.2
2018-Feb-12 14:00N 27°40' W 015°19'611.1
2018-Feb-12 13:29N 27°34' W 015°20'  
Track history (hours):
 
Tides and Currents Weather Stations Pressure Air Temp Water Temp Dewpoint Dewpoint Depression Visibility Wind Speed Wind Dir Waves Ship Positions

Louise B

Last reported at 2018-Feb-15 15:36 UTC. Time now 2018-Feb-22 19:11 UTC.
Position N 35°60' W 005°13'.

Length 187 m; draft 10.3 m.

Type: Cargo ship. MMSI: 636017138.

Date/timePositionNaut miles runAvg speedWind from/ knotsBaromVisibWave heightAir tempDewpointWater temp
2018-Feb-15 15:36N 35°60' W 005°13'114.5
2018-Feb-15 15:31N 35°60' W 005°15'714.1
2018-Feb-15 15:00N 35°58' W 005°23'  
2018-Feb-13 05:41N 28°43' W 014°42'211.2
2018-Feb-13 05:30N 28°41' W 014°44'611.2
2018-Feb-13 05:00N 28°37' W 014°48'611.0
2018-Feb-13 04:30N 28°33' W 014°53'511.0
2018-Feb-13 04:00N 28°30' W 014°57'510.9
2018-Feb-13 03:30N 28°26' W 015°02'510.9
2018-Feb-13 03:00N 28°22' W 015°06'611.1
2018-Feb-13 02:28N 28°18' W 015°11'511.0
2018-Feb-13 02:00N 28°14' W 015°15'510.9
2018-Feb-13 01:30N 28°10' W 015°19'5 9.2
2018-Feb-13 01:00N 28°07' W 015°23'1 2.1
2018-Feb-13 00:30N 28°06' W 015°24'0 0.1
2018-Feb-13 00:00N 28°06' W 015°24'0 0.0
2018-Feb-12 23:30N 28°06' W 015°24'0 0.0
2018-Feb-12 23:00N 28°06' W 015°24'0 0.0
2018-Feb-12 22:30N 28°06' W 015°24'0 0.0
2018-Feb-12 22:00N 28°06' W 015°24'0 0.0
2018-Feb-12 21:30N 28°06' W 015°24'0 0.0
2018-Feb-12 21:00N 28°06' W 015°24'0 0.0
2018-Feb-12 20:30N 28°06' W 015°24'0 0.0
2018-Feb-12 19:57N 28°06' W 015°24'0 0.0
2018-Feb-12 19:30N 28°06' W 015°24'0 0.0
2018-Feb-12 19:00N 28°06' W 015°24'0 0.1
2018-Feb-12 18:30N 28°06' W 015°24'0 0.5
2018-Feb-12 18:00N 28°06' W 015°24'1 2.2
2018-Feb-12 17:30N 28°06' W 015°23'1 1.5
2018-Feb-12 17:00N 28°06' W 015°22'1 2.1
2018-Feb-12 16:30N 28°05' W 015°21'3 6.8
2018-Feb-12 16:00N 28°02' W 015°19'510.5
2018-Feb-12 15:30N 27°57' W 015°18'511.0
2018-Feb-12 15:00N 27°51' W 015°18'611.1
2018-Feb-12 14:30N 27°46' W 015°18'611.2
2018-Feb-12 14:00N 27°40' W 015°19'611.1
2018-Feb-12 13:29N 27°34' W 015°20'  

Dump ship's entire track history